Portada
METAR-TAF:

METAR-TAF

Aeropuertos :

Hannibal, Misuri, Estados Unidos

latitud: 39-43-31N, longitud: 091-26-38W, altitud: 234 m

Observación

El informe se hizo hace 24 minutos, a las 23:15 UTC
Viento 3 kt del norte
Temperatura 26°C
Humedad 51%
Presión 1019 hPa
Visibilidad: 11.3 km
Cielo despejado

METAR: KHAE 012315Z AUTO 01003KT 7SM CLR 26/15 A3008 RMK AO2

Hora: 18:39 (23:39 UTC)


TAF: falta

Observaciones y pronósticos meteorológicos de más de 4000 aeropuertos (mensajes METAR y TAF).

Los puntos amarillos y rojos representan las estaciones disponibles.

Ponga el ratón en el punto deseado para ver el nombre de la estación.

Haga clic para ver las observaciones y los pronósticos meteorológicos.

Para cambiar el mapa : haga clic en los botones verdes con una cruz de color negro para hacer un zoom, en el botón verde con un guión para alejar o en las flechas verdes para mapas adyacentes.


METAR-TAF: